createdAt,value
2022-11-21T05:27:46.899Z,56.50
2022-11-21T12:02:20.916Z,53.90
2022-11-21T12:04:48.876Z,54.10
2022-11-21T12:10:25.772Z,54.10
2022-11-21T12:12:52.883Z,54.30
2022-11-21T12:15:42.360Z,54.40
2022-11-21T12:18:18.142Z,54.50
2022-11-21T12:20:44.716Z,54.60
2022-11-21T12:23:11.347Z,54.60
2022-11-21T12:25:49.551Z,54.60
2022-11-21T12:28:23.408Z,54.60
2022-11-21T12:30:52.663Z,54.80
2022-11-21T12:33:20.135Z,54.80
2022-11-21T12:36:17.259Z,54.80
2022-11-21T12:38:45.246Z,54.80
2022-11-21T12:41:33.384Z,54.90
2022-11-21T12:44:18.920Z,54.90
2022-11-21T12:46:48.739Z,54.90
2022-11-21T12:49:37.102Z,54.80
2022-11-21T12:52:41.290Z,54.80
2022-11-21T12:55:10.997Z,54.90
2022-11-21T12:57:37.595Z,54.80
2022-11-21T13:00:09.068Z,54.90
2022-11-21T13:02:43.813Z,54.80
2022-11-21T13:05:11.359Z,54.90
2022-11-21T13:07:38.018Z,54.90
2022-11-21T13:10:08.065Z,54.90
2022-11-21T13:12:43.225Z,55.50
2022-11-21T13:15:38.555Z,54.80
2022-11-21T13:18:20.144Z,54.80
2022-11-21T13:20:47.910Z,55.50
2022-11-21T13:23:37.867Z,55.00
2022-11-21T13:26:30.678Z,55.00
2022-11-21T13:29:15.496Z,54.90
2022-11-21T13:31:45.188Z,54.90
2022-11-21T13:34:30.499Z,54.90
2022-11-21T13:36:57.211Z,54.90
2022-11-21T13:39:27.225Z,54.90
2022-11-21T13:42:20.437Z,55.00
2022-11-21T13:44:47.656Z,54.90
2022-11-21T13:47:26.544Z,55.00
2022-11-21T13:50:11.639Z,55.00
2022-11-21T13:52:44.008Z,55.00
2022-11-21T13:55:16.486Z,55.00
2022-11-21T13:57:43.094Z,55.00
2022-11-21T14:00:31.779Z,55.00
2022-11-21T14:03:02.777Z,55.00
2022-11-21T14:05:35.301Z,55.00
2022-11-21T14:08:16.550Z,54.90
2022-11-21T14:10:43.267Z,54.90
2022-11-21T14:13:17.387Z,54.90
2022-11-21T14:15:47.145Z,54.90
2022-11-21T14:18:15.501Z,54.80
2022-11-21T14:20:52.508Z,54.80
2022-11-21T14:23:25.664Z,54.90
2022-11-21T14:26:05.045Z,54.90
2022-11-21T14:28:32.408Z,54.80
2022-11-21T14:30:59.754Z,54.90
2022-11-21T14:33:26.388Z,54.80
2022-11-21T14:35:54.340Z,54.90
2022-11-21T14:38:21.668Z,54.90
2022-11-21T14:40:48.342Z,54.60
2022-11-21T14:43:44.279Z,54.80
2022-11-21T14:46:14.826Z,54.80
2022-11-21T14:48:43.436Z,55.00
2022-11-21T14:51:10.124Z,54.90
2022-11-21T14:53:41.966Z,54.60
2022-11-21T14:56:10.400Z,53.90
2022-11-21T14:58:39.843Z,54.50
2022-11-21T15:01:07.362Z,53.90
2022-11-21T15:03:34.079Z,53.70
2022-11-21T15:06:05.216Z,55.00
2022-11-21T15:11:23.290Z,54.50
2022-11-21T15:14:14.248Z,54.50
2022-11-21T15:16:37.213Z,54.30
2022-11-21T15:19:10.173Z,54.10
2022-11-21T15:21:36.811Z,53.80
2022-11-21T15:24:37.749Z,53.60
2022-11-21T15:27:22.963Z,53.50
2022-11-21T15:30:00.289Z,53.00
2022-11-21T15:32:26.876Z,53.00
2022-11-21T15:34:53.763Z,53.20
2022-11-21T15:37:20.819Z,53.30
2022-11-21T15:39:48.609Z,53.30
2022-11-21T15:42:33.712Z,53.50
2022-11-21T15:45:20.109Z,53.50
2022-11-21T15:47:47.420Z,53.60
2022-11-21T15:50:14.409Z,53.70
2022-11-21T15:52:48.189Z,53.80
2022-11-21T15:55:21.185Z,53.80
2022-11-21T15:57:47.846Z,53.90
2022-11-21T16:00:14.878Z,54.00
2022-11-21T16:02:41.636Z,54.00
2022-11-21T16:05:11.417Z,54.00
2022-11-21T16:07:38.094Z,54.00
2022-11-21T16:10:04.962Z,54.00
2022-11-21T16:12:31.555Z,53.90
2022-11-21T16:14:58.148Z,54.00
2022-11-21T16:17:24.776Z,54.00
2022-11-21T16:19:53.671Z,54.00
2022-11-21T16:22:20.357Z,54.00
2022-11-21T16:24:46.944Z,54.00
2022-11-21T16:27:13.712Z,53.90
2022-11-21T16:29:40.420Z,54.00
2022-11-21T16:32:07.041Z,53.90
2022-11-21T16:34:33.640Z,53.90
2022-11-21T16:37:05.825Z,54.00
2022-11-21T16:39:34.165Z,54.20
2022-11-21T16:42:01.130Z,54.00
2022-11-21T16:44:29.329Z,54.00
2022-11-21T16:46:56.152Z,54.00
2022-11-21T16:49:24.440Z,54.00
2022-11-21T16:51:51.179Z,54.00
2022-11-21T16:54:17.850Z,54.20
2022-11-21T16:56:44.688Z,54.00
2022-11-21T16:59:11.307Z,54.10
2022-11-21T17:01:38.055Z,54.10
2022-11-21T17:04:04.780Z,53.90
2022-11-21T17:06:31.549Z,54.00
2022-11-21T17:09:03.908Z,54.00
2022-11-21T17:11:31.136Z,54.00
2022-11-21T17:14:04.610Z,53.90
2022-11-21T17:16:34.535Z,53.90
2022-11-21T17:19:01.447Z,53.90
2022-11-21T17:21:28.370Z,54.00
2022-11-21T17:23:55.044Z,54.10
2022-11-21T17:46:32.121Z,53.70
2022-11-21T17:48:59.295Z,53.90
2022-11-21T17:51:27.249Z,53.80
2022-11-21T17:53:53.898Z,54.00
2022-11-21T17:56:21.626Z,53.80
2022-11-21T17:58:48.281Z,54.10
2022-11-21T18:01:19.227Z,54.00
2022-11-21T18:03:47.051Z,54.00
2022-11-21T18:06:14.442Z,54.20
2022-11-21T18:08:42.020Z,54.00
2022-11-21T18:11:09.016Z,54.00
2022-11-21T18:13:36.857Z,53.80
2022-11-21T18:16:04.486Z,53.60
2022-11-21T18:18:31.443Z,53.50
2022-11-21T18:21:04.796Z,53.40
2022-11-21T18:23:31.481Z,51.00
2022-11-21T18:26:04.897Z,51.90
2022-11-21T18:28:31.773Z,52.30
2022-11-21T18:31:08.483Z,51.90
2022-11-21T18:33:35.521Z,52.70
2022-11-21T18:36:02.405Z,52.50
2022-11-21T18:38:48.129Z,52.50
2022-11-21T18:41:20.794Z,53.30
2022-11-21T18:43:54.048Z,53.20
2022-11-21T18:46:21.989Z,53.50
2022-11-21T18:49:07.251Z,53.50
2022-11-21T18:51:34.665Z,53.60
2022-11-21T18:54:04.365Z,53.70
2022-11-21T18:56:31.084Z,53.80
2022-11-21T18:58:59.060Z,53.90
2022-11-21T19:01:27.040Z,53.60
2022-11-21T19:03:53.953Z,53.60
2022-11-21T19:06:20.968Z,53.90
2022-11-21T19:08:48.116Z,53.80
2022-11-21T19:11:15.108Z,54.50
2022-11-21T19:13:41.807Z,53.80
2022-11-21T19:16:10.812Z,54.00
2022-11-21T19:18:41.158Z,53.90
2022-11-21T19:21:10.375Z,53.90
2022-11-21T19:23:37.184Z,54.00
2022-11-21T19:26:07.821Z,54.00
2022-11-21T19:28:34.536Z,54.20
2022-11-21T19:31:02.485Z,54.20
2022-11-21T19:33:29.690Z,54.30
2022-11-21T19:35:59.709Z,54.50
2022-11-21T19:38:26.740Z,54.50
2022-11-21T19:41:12.045Z,54.70
2022-11-21T19:43:45.206Z,54.50
2022-11-21T19:46:12.542Z,54.50
2022-11-21T19:48:39.351Z,54.50
2022-11-21T19:51:06.192Z,54.50
2022-11-21T19:53:33.982Z,54.60
2022-11-21T19:56:20.912Z,54.60
2022-11-21T19:58:47.754Z,54.60
2022-11-21T20:01:17.524Z,54.50
2022-11-21T20:03:44.818Z,54.60
2022-11-21T20:06:17.798Z,54.60
2022-11-21T20:08:44.426Z,54.60
2022-11-21T20:11:11.884Z,54.60
2022-11-21T20:13:39.308Z,54.60
2022-11-21T20:16:06.256Z,54.60
2022-11-21T20:18:32.871Z,54.70
2022-11-21T20:21:06.564Z,54.60
2022-11-21T20:23:33.181Z,54.60
2022-11-21T20:25:59.831Z,54.60
2022-11-21T20:28:26.517Z,54.70
2022-11-21T20:30:53.140Z,54.60
2022-11-21T20:33:20.447Z,54.60
2022-11-21T20:35:47.052Z,54.60
2022-11-21T20:38:13.653Z,54.90
2022-11-21T20:40:42.135Z,54.60
2022-11-21T20:43:11.914Z,54.60
2022-11-21T20:48:25.171Z,54.60
2022-11-21T20:51:51.021Z,54.50
2022-11-21T20:54:00.026Z,54.40
2022-11-21T20:56:27.640Z,54.50
2022-11-21T20:58:54.258Z,54.40
2022-11-21T21:01:21.094Z,54.30
2022-11-21T21:03:48.149Z,54.30
2022-11-21T21:06:15.370Z,54.30
2022-11-21T21:08:42.042Z,54.40
2022-11-21T21:11:25.727Z,54.20
2022-11-21T21:13:59.067Z,54.20
2022-11-21T21:16:26.319Z,54.10
2022-11-21T21:18:53.646Z,54.10
2022-11-21T21:21:21.161Z,54.10
2022-11-21T21:23:57.691Z,54.20
2022-11-21T21:26:25.506Z,54.20
2022-11-21T21:28:52.546Z,54.10
2022-11-21T21:31:19.787Z,54.20
2022-11-21T21:33:46.477Z,54.00
2022-11-21T21:36:13.985Z,54.00
2022-11-21T21:38:40.753Z,54.00
2022-11-21T21:41:09.939Z,54.00
2022-11-21T21:43:36.719Z,54.20
2022-11-21T21:46:09.865Z,53.90
2022-11-21T21:48:36.716Z,54.00
2022-11-21T21:51:07.016Z,54.00
2022-11-21T21:53:36.891Z,54.00
2022-11-21T21:56:03.814Z,54.00
2022-11-21T21:58:31.760Z,54.10
2022-11-21T22:01:01.878Z,53.90
2022-11-21T22:03:28.484Z,53.90
2022-11-21T22:05:55.066Z,53.80
2022-11-21T22:08:21.666Z,54.00
2022-11-21T22:10:48.297Z,53.90
2022-11-21T22:13:14.916Z,53.90
2022-11-21T22:15:41.785Z,54.00
2022-11-21T22:18:08.411Z,53.80
2022-11-21T22:20:35.040Z,53.90
2022-11-21T22:23:01.686Z,53.80
2022-11-21T22:25:28.362Z,54.00
2022-11-21T22:27:54.974Z,53.80
2022-11-21T22:30:21.597Z,53.70
2022-11-21T22:32:48.247Z,53.70
2022-11-21T22:35:14.839Z,53.90
2022-11-21T22:37:41.421Z,53.90
2022-11-21T22:40:08.247Z,53.70
2022-11-21T22:42:34.878Z,53.70
2022-11-21T22:45:01.681Z,53.70
2022-11-21T22:47:28.276Z,53.70
2022-11-21T22:49:54.908Z,53.70
2022-11-21T22:52:21.630Z,53.80
2022-11-21T22:54:48.310Z,53.70
2022-11-21T22:57:14.921Z,53.80
2022-11-21T22:59:41.545Z,53.70
2022-11-21T23:02:08.194Z,53.60
2022-11-21T23:04:35.209Z,53.70
2022-11-21T23:07:02.044Z,53.70
2022-11-21T23:09:29.156Z,53.90
2022-11-21T23:11:55.865Z,53.70
2022-11-21T23:14:22.493Z,53.70
2022-11-21T23:16:49.122Z,53.80
2022-11-21T23:19:15.724Z,53.70
2022-11-21T23:21:42.320Z,53.60
2022-11-21T23:24:08.996Z,53.70
2022-11-21T23:26:35.653Z,53.70
2022-11-21T23:29:08.049Z,53.90
2022-11-21T23:31:35.341Z,53.60
2022-11-21T23:34:01.923Z,53.70
2022-11-21T23:36:28.538Z,53.70
2022-11-21T23:38:55.211Z,53.60
2022-11-21T23:41:21.812Z,53.70
2022-11-21T23:43:48.417Z,53.70
2022-11-21T23:46:15.027Z,53.70
